createdAt,value
2023-03-29T00:03:59.268Z,16.23
2023-03-29T00:09:06.242Z,14.90
2023-03-29T00:14:08.982Z,15.65
2023-03-29T00:19:11.343Z,17.80
2023-03-29T00:24:13.737Z,15.27
2023-03-29T00:29:16.969Z,15.48
2023-03-29T00:34:19.929Z,12.70
2023-03-29T00:39:22.369Z,14.40
2023-03-29T00:44:53.006Z,15.15
2023-03-29T00:49:58.013Z,13.40
2023-03-29T00:55:06.257Z,11.45
2023-03-29T01:00:12.461Z,12.35
2023-03-29T01:05:20.389Z,13.25
2023-03-29T01:10:29.870Z,13.40
2023-03-29T01:15:33.717Z,16.25
2023-03-29T01:21:10.674Z,14.80
2023-03-29T01:26:19.164Z,14.27
2023-03-29T01:31:31.804Z,15.65
2023-03-29T01:37:00.621Z,13.32
2023-03-29T01:42:12.063Z,14.88
2023-03-29T01:47:36.864Z,10.23
2023-03-29T01:52:50.959Z,12.18
2023-03-29T01:57:56.658Z,12.38
2023-03-29T02:03:03.477Z,15.70
2023-03-29T02:08:10.181Z,16.27
2023-03-29T02:13:12.797Z,13.07
2023-03-29T02:18:19.032Z,12.43
2023-03-29T02:23:27.763Z,12.13
2023-03-29T02:28:32.009Z,13.18
2023-03-29T02:34:00.872Z,13.80
2023-03-29T02:39:06.329Z,11.80
2023-03-29T02:44:14.398Z,13.43
2023-03-29T02:49:17.152Z,12.35
2023-03-29T02:54:22.400Z,11.60
2023-03-29T02:59:24.988Z,12.73
2023-03-29T03:04:27.545Z,10.65
2023-03-29T03:09:29.956Z,9.57
2023-03-29T03:14:32.962Z,10.02
2023-03-29T03:19:36.660Z,10.02
2023-03-29T03:24:39.610Z,8.18
2023-03-29T03:29:42.456Z,9.30
2023-03-29T03:35:06.239Z,6.63
2023-03-29T03:40:09.565Z,10.00
2023-03-29T03:45:13.385Z,9.35
2023-03-29T03:50:27.718Z,7.85
2023-03-29T03:55:32.641Z,6.25
2023-03-29T04:00:46.451Z,7.43
2023-03-29T04:06:07.789Z,7.20
2023-03-29T04:11:33.866Z,9.07
2023-03-29T04:16:37.113Z,8.65
2023-03-29T04:21:58.305Z,6.85
2023-03-29T04:27:01.885Z,6.70
2023-03-29T04:32:04.960Z,5.68
2023-03-29T04:37:30.083Z,6.70
2023-03-29T04:42:34.583Z,7.95
2023-03-29T04:47:40.037Z,5.63
2023-03-29T04:52:51.108Z,7.68
2023-03-29T04:57:54.329Z,6.18
2023-03-29T05:03:04.748Z,6.20
2023-03-29T05:08:10.940Z,9.20
2023-03-29T05:13:29.012Z,5.20
2023-03-29T05:18:32.115Z,7.45
2023-03-29T05:23:34.737Z,8.70
2023-03-29T05:28:42.885Z,6.05
2023-03-29T05:33:45.824Z,8.68
2023-03-29T05:38:48.379Z,6.47
2023-03-29T05:43:51.021Z,6.15
2023-03-29T05:48:55.456Z,6.85
2023-03-29T05:54:08.061Z,6.15
2023-03-29T05:59:10.631Z,6.65
2023-03-29T06:04:14.860Z,4.60
2023-03-29T06:09:26.904Z,6.07
2023-03-29T06:14:38.949Z,8.18
2023-03-29T06:20:02.412Z,5.95
2023-03-29T06:25:11.117Z,7.57
2023-03-29T06:30:16.790Z,5.65
2023-03-29T06:35:23.779Z,4.97
2023-03-29T06:40:32.464Z,4.35
2023-03-29T06:45:37.616Z,5.60
2023-03-29T06:50:44.980Z,6.10
2023-03-29T06:55:52.885Z,9.65
2023-03-29T07:01:15.623Z,8.63
2023-03-29T07:06:24.401Z,7.68
2023-03-29T07:11:27.396Z,9.82
2023-03-29T07:16:32.945Z,8.32
2023-03-29T07:22:04.674Z,7.90
2023-03-29T07:27:21.067Z,6.97
2023-03-29T07:32:25.000Z,7.88
2023-03-29T07:37:47.889Z,9.80
2023-03-29T07:42:55.625Z,8.68
2023-03-29T07:48:00.143Z,8.80
2023-03-29T07:53:10.661Z,7.20
2023-03-29T07:58:14.956Z,8.25
2023-03-29T08:03:18.314Z,9.05
2023-03-29T08:08:20.892Z,8.43
2023-03-29T08:13:32.991Z,8.90
2023-03-29T08:18:54.042Z,6.70
2023-03-29T08:23:59.450Z,9.35
2023-03-29T08:29:23.757Z,8.95
2023-03-29T08:34:26.516Z,9.43
2023-03-29T08:39:58.366Z,10.82
2023-03-29T08:45:21.443Z,9.10
2023-03-29T08:50:48.831Z,9.52
2023-03-29T08:55:56.398Z,10.13
2023-03-29T09:01:35.714Z,9.85
2023-03-29T09:06:42.370Z,10.15
2023-03-29T09:12:48.692Z,8.52
2023-03-29T09:17:57.230Z,11.13
2023-03-29T09:23:23.757Z,10.38
2023-03-29T09:29:52.151Z,7.43
2023-03-29T09:35:14.541Z,7.32
2023-03-29T09:40:40.147Z,8.88
2023-03-29T09:45:53.819Z,9.75
2023-03-29T09:50:57.527Z,8.82
2023-03-29T09:56:02.374Z,6.35
2023-03-29T10:01:22.354Z,6.65
2023-03-29T10:06:27.141Z,7.82
2023-03-29T10:11:37.248Z,8.15
2023-03-29T10:16:42.700Z,7.43
2023-03-29T10:21:49.349Z,8.50
2023-03-29T10:26:56.118Z,6.97
2023-03-29T10:31:58.820Z,6.95
2023-03-29T10:37:02.470Z,6.90
2023-03-29T10:42:05.320Z,7.13
2023-03-29T10:47:16.531Z,9.35
2023-03-29T10:52:19.219Z,7.28
2023-03-29T10:57:41.033Z,7.95
2023-03-29T11:02:49.672Z,8.57
2023-03-29T11:08:01.952Z,8.15
2023-03-29T11:13:21.610Z,9.77
2023-03-29T11:18:39.058Z,7.75
2023-03-29T11:23:57.175Z,8.55
2023-03-29T11:29:29.666Z,9.38
2023-03-29T11:35:27.414Z,10.95
2023-03-29T11:40:37.693Z,8.38
2023-03-29T11:45:46.468Z,8.70
2023-03-29T11:51:03.588Z,7.55
2023-03-29T11:56:16.895Z,9.55
2023-03-29T12:01:32.067Z,7.90
2023-03-29T12:06:48.347Z,7.22
2023-03-29T12:12:03.745Z,6.68
2023-03-29T12:17:13.160Z,8.27
2023-03-29T12:22:15.770Z,9.57
2023-03-29T12:28:12.552Z,7.90
2023-03-29T12:33:51.166Z,9.15
2023-03-29T12:39:20.164Z,8.77
2023-03-29T12:44:49.398Z,8.98
2023-03-29T12:50:00.605Z,9.38
2023-03-29T12:55:18.090Z,9.90
2023-03-29T13:00:28.028Z,10.38
2023-03-29T13:05:39.644Z,8.82
2023-03-29T13:10:43.107Z,7.60
2023-03-29T13:15:46.426Z,10.18
2023-03-29T13:20:57.723Z,9.07
2023-03-29T13:26:28.320Z,7.38
2023-03-29T13:31:44.490Z,12.05
2023-03-29T13:37:08.739Z,10.02
2023-03-29T13:42:36.617Z,8.48
2023-03-29T13:47:54.962Z,11.73
2023-03-29T13:53:21.265Z,8.82
2023-03-29T13:58:38.325Z,8.13
2023-03-29T14:03:47.398Z,8.23
2023-03-29T14:08:52.009Z,9.80
2023-03-29T14:13:59.724Z,12.40
2023-03-29T14:19:13.772Z,8.48
2023-03-29T14:24:21.831Z,9.32
2023-03-29T14:29:30.528Z,8.60
2023-03-29T14:34:32.986Z,7.43
2023-03-29T14:39:36.087Z,11.18
2023-03-29T14:44:38.853Z,11.60
2023-03-29T14:49:41.298Z,18.40
2023-03-29T14:54:47.960Z,12.63
2023-03-29T15:00:02.707Z,7.45
2023-03-29T15:05:07.959Z,3.95
2023-03-29T15:15:21.151Z,6.45
2023-03-29T15:20:29.353Z,6.60
2023-03-29T15:25:46.500Z,6.57
2023-03-29T15:31:00.728Z,8.77
2023-03-29T15:36:12.405Z,12.77
2023-03-29T15:41:15.717Z,4.85
2023-03-29T15:46:18.115Z,6.18
2023-03-29T15:51:20.495Z,4.63
2023-03-29T15:56:23.196Z,3.63
2023-03-29T16:01:35.953Z,5.60
2023-03-29T16:06:38.987Z,6.43
2023-03-29T16:11:43.330Z,4.13
2023-03-29T16:21:48.682Z,6.22
2023-03-29T16:26:54.757Z,4.32
2023-03-29T16:31:59.299Z,4.63
2023-03-29T16:37:01.875Z,2.58
2023-03-29T16:42:04.790Z,3.20
2023-03-29T16:47:07.246Z,3.15
2023-03-29T16:52:09.608Z,3.75
2023-03-29T16:57:12.508Z,4.28
2023-03-29T17:02:14.925Z,7.57
2023-03-29T17:07:17.449Z,3.85
2023-03-29T17:12:21.458Z,3.75
2023-03-29T17:17:34.985Z,2.28
2023-03-29T17:22:40.151Z,3.80
2023-03-29T17:27:42.670Z,3.80
2023-03-29T17:32:47.802Z,5.57
2023-03-29T17:37:50.261Z,5.88
2023-03-29T17:42:52.986Z,4.18
2023-03-29T17:47:55.858Z,8.02
2023-03-29T17:52:58.283Z,8.10
2023-03-29T17:58:01.063Z,4.63
2023-03-29T18:03:04.317Z,6.22
2023-03-29T18:08:06.923Z,4.95
2023-03-29T18:13:14.077Z,4.38
2023-03-29T18:18:16.398Z,3.33
2023-03-29T18:23:18.905Z,6.03
2023-03-29T18:28:21.749Z,3.40
2023-03-29T18:33:24.948Z,4.80
2023-03-29T18:38:27.400Z,7.07
2023-03-29T18:43:31.228Z,3.50
2023-03-29T18:48:39.157Z,3.13
2023-03-29T18:53:43.269Z,4.07
2023-03-29T18:58:46.611Z,4.80
2023-03-29T19:03:49.362Z,4.82
2023-03-29T19:08:54.237Z,4.38
2023-03-29T19:13:56.907Z,2.95
2023-03-29T19:19:00.359Z,3.67
2023-03-29T19:24:05.306Z,8.93
2023-03-29T19:29:07.850Z,4.93
2023-03-29T19:34:11.317Z,4.82
2023-03-29T19:39:13.937Z,3.22
2023-03-29T19:44:16.324Z,3.38
2023-03-29T19:49:19.105Z,5.93
2023-03-29T19:54:22.092Z,4.70
2023-03-29T19:59:25.518Z,7.22
2023-03-29T20:04:29.010Z,6.07
2023-03-29T20:09:35.512Z,5.45
2023-03-29T20:14:40.360Z,3.83
2023-03-29T20:19:44.388Z,2.85
2023-03-29T20:24:46.780Z,3.08
2023-03-29T20:29:49.271Z,2.97
2023-03-29T20:34:51.706Z,6.03
2023-03-29T20:39:56.945Z,2.70
2023-03-29T20:45:00.435Z,3.45
2023-03-29T20:50:04.368Z,4.18
2023-03-29T20:55:06.953Z,5.03
2023-03-29T21:00:12.467Z,3.65
2023-03-29T21:05:15.972Z,3.67
2023-03-29T21:10:18.506Z,3.60
2023-03-29T21:15:21.584Z,3.55
2023-03-29T21:20:24.522Z,4.30
2023-03-29T21:25:26.994Z,1.95
2023-03-29T21:30:31.863Z,3.53
2023-03-29T21:35:35.960Z,3.63
2023-03-29T21:40:39.214Z,3.13
2023-03-29T21:45:41.614Z,4.15
2023-03-29T21:50:44.683Z,4.47
2023-03-29T21:55:50.921Z,3.47
2023-03-29T22:00:56.000Z,3.15
2023-03-29T22:06:01.660Z,5.95
2023-03-29T22:11:08.402Z,5.57
2023-03-29T22:16:16.958Z,3.50
2023-03-29T22:21:25.196Z,5.28
2023-03-29T22:26:30.817Z,4.22
2023-03-29T22:31:33.261Z,4.25
2023-03-29T22:36:36.361Z,4.10
2023-03-29T22:41:38.761Z,5.22
2023-03-29T22:46:41.532Z,5.90
2023-03-29T22:51:43.966Z,4.35
2023-03-29T22:56:47.033Z,4.53
2023-03-29T23:01:50.291Z,7.53
2023-03-29T23:06:53.526Z,6.22
2023-03-29T23:11:55.977Z,5.90
2023-03-29T23:16:58.501Z,8.73
2023-03-29T23:22:01.225Z,6.32
2023-03-29T23:27:05.092Z,5.78
2023-03-29T23:32:07.600Z,5.53
2023-03-29T23:37:09.916Z,9.05
2023-03-29T23:42:12.438Z,6.40
2023-03-29T23:47:14.791Z,6.07
2023-03-29T23:52:17.726Z,6.47
2023-03-29T23:57:21.596Z,6.65
